createdAt,value
2023-01-20T00:00:28.020Z,11.50
2023-01-20T00:02:00.719Z,10.10
2023-01-20T00:03:33.467Z,10.23
2023-01-20T00:05:07.502Z,9.70
2023-01-20T00:06:40.231Z,9.65
2023-01-20T00:08:12.918Z,10.00
2023-01-20T00:09:45.815Z,10.15
2023-01-20T00:11:20.951Z,9.90
2023-01-20T00:12:53.627Z,10.23
2023-01-20T00:14:27.666Z,9.85
2023-01-20T00:16:02.767Z,10.68
2023-01-20T00:17:35.502Z,11.13
2023-01-20T00:19:08.523Z,10.18
2023-01-20T00:20:41.341Z,9.98
2023-01-20T00:22:14.057Z,9.82
2023-01-20T00:23:47.830Z,9.43
2023-01-20T00:25:20.526Z,9.27
2023-01-20T00:26:54.584Z,10.02
2023-01-20T00:28:27.286Z,10.18
2023-01-20T00:29:59.956Z,9.98
2023-01-20T00:31:34.527Z,9.35
2023-01-20T00:33:07.294Z,10.13
2023-01-20T00:34:40.059Z,10.35
2023-01-20T00:36:14.431Z,9.77
2023-01-20T00:37:46.136Z,9.98
2023-01-20T00:39:18.817Z,9.85
2023-01-20T00:40:54.474Z,9.85
2023-01-20T00:42:28.540Z,9.45
2023-01-20T00:44:01.465Z,10.23
2023-01-20T00:45:34.165Z,10.13
2023-01-20T00:47:07.097Z,10.57
2023-01-20T00:48:40.165Z,10.63
2023-01-20T00:50:12.879Z,10.60
2023-01-20T00:51:44.614Z,10.68
2023-01-20T00:53:17.383Z,10.45
2023-01-20T00:54:50.079Z,10.38
2023-01-20T00:56:21.798Z,10.23
2023-01-20T00:57:55.814Z,10.23
2023-01-20T00:59:28.510Z,10.25
2023-01-20T01:01:00.945Z,9.95
2023-01-20T01:02:38.713Z,10.57
2023-01-20T01:04:10.503Z,10.63
2023-01-20T01:05:43.413Z,10.10
2023-01-20T01:07:16.158Z,9.90
2023-01-20T01:08:48.844Z,9.85
2023-01-20T01:10:20.577Z,10.50
2023-01-20T01:11:53.263Z,10.40
2023-01-20T01:13:26.330Z,11.02
2023-01-20T01:14:59.036Z,10.85
2023-01-20T01:16:31.774Z,10.90
2023-01-20T01:18:03.987Z,10.07
2023-01-20T01:19:36.671Z,10.50
2023-01-20T01:21:09.103Z,9.95
2023-01-20T01:22:41.926Z,11.27
2023-01-20T01:24:14.647Z,9.80
2023-01-20T01:25:47.348Z,9.82
2023-01-20T01:27:20.035Z,10.20
2023-01-20T01:28:54.351Z,9.95
2023-01-20T01:30:27.136Z,9.65
2023-01-20T01:31:59.836Z,9.63
2023-01-20T01:33:31.823Z,9.48
2023-01-20T01:35:04.771Z,9.82
2023-01-20T01:36:37.469Z,9.90
2023-01-20T01:38:10.184Z,10.48
2023-01-20T01:39:42.919Z,10.80
2023-01-20T01:41:17.919Z,10.35
2023-01-20T01:42:50.659Z,10.43
2023-01-20T01:44:28.042Z,9.35
2023-01-20T01:46:01.339Z,10.13
2023-01-20T01:47:33.198Z,9.50
2023-01-20T01:49:09.625Z,9.70
2023-01-20T01:50:48.191Z,9.23
2023-01-20T01:52:21.739Z,9.82
2023-01-20T01:53:57.607Z,10.60
2023-01-20T01:55:34.095Z,9.23
2023-01-20T01:57:08.319Z,10.45
2023-01-20T01:58:46.021Z,10.52
2023-01-20T02:00:20.915Z,10.10
2023-01-20T02:01:54.862Z,10.07
2023-01-20T02:03:31.405Z,10.30
2023-01-20T02:05:04.411Z,10.43
2023-01-20T02:06:40.631Z,9.98
2023-01-20T02:08:13.293Z,10.48
2023-01-20T02:09:46.439Z,10.68
2023-01-20T02:11:19.098Z,10.65
2023-01-20T02:12:52.708Z,10.68
2023-01-20T02:14:30.558Z,11.00
2023-01-20T02:16:13.940Z,10.70
2023-01-20T02:17:56.123Z,10.48
2023-01-20T02:19:55.904Z,10.55
2023-01-20T02:21:50.576Z,10.20
2023-01-20T02:23:42.062Z,10.35
2023-01-20T02:25:38.685Z,10.75
2023-01-20T02:27:15.436Z,10.52
2023-01-20T02:29:20.371Z,10.48
2023-01-20T02:31:37.913Z,11.07
2023-01-20T02:33:16.381Z,11.05
2023-01-20T02:34:58.639Z,10.63
2023-01-20T02:36:39.158Z,10.70
2023-01-20T02:38:17.733Z,11.00
2023-01-20T02:39:57.957Z,11.00
2023-01-20T02:41:39.072Z,10.52
2023-01-20T02:43:18.753Z,11.55
2023-01-20T02:44:57.850Z,11.07
2023-01-20T02:46:35.158Z,10.88
2023-01-20T02:48:16.260Z,10.63
2023-01-20T02:49:55.488Z,10.80
2023-01-20T02:51:31.775Z,10.70
2023-01-20T02:53:06.731Z,10.98
2023-01-20T02:54:43.001Z,10.60
2023-01-20T02:56:17.723Z,10.48
2023-01-20T02:57:56.698Z,10.43
2023-01-20T02:59:34.087Z,10.20
2023-01-20T03:01:12.576Z,10.55
2023-01-20T03:02:48.157Z,11.15
2023-01-20T03:04:26.035Z,11.05
2023-01-20T03:06:00.199Z,10.55
2023-01-20T03:07:35.236Z,11.27
2023-01-20T03:09:11.121Z,11.02
2023-01-20T03:10:46.287Z,10.88
2023-01-20T03:12:22.400Z,10.23
2023-01-20T03:14:00.304Z,10.65
2023-01-20T03:15:38.996Z,10.95
2023-01-20T03:17:11.863Z,10.38
2023-01-20T03:18:45.553Z,10.80
2023-01-20T03:20:19.792Z,10.55
2023-01-20T03:21:53.124Z,11.02
2023-01-20T03:23:27.475Z,10.95
2023-01-20T03:24:59.725Z,10.27
2023-01-20T03:26:32.450Z,11.10
2023-01-20T03:28:05.642Z,10.90
2023-01-20T03:29:38.504Z,10.82
2023-01-20T03:31:16.374Z,10.65
2023-01-20T03:32:51.004Z,11.07
2023-01-20T03:34:26.273Z,11.25
2023-01-20T03:36:00.383Z,10.40
2023-01-20T03:37:33.184Z,11.73
2023-01-20T03:39:06.595Z,11.50
2023-01-20T03:40:46.763Z,11.45
2023-01-20T03:42:27.980Z,11.88
2023-01-20T03:44:10.401Z,11.27
2023-01-20T03:45:52.646Z,11.73
2023-01-20T03:47:33.506Z,11.70
2023-01-20T03:49:16.274Z,12.07
2023-01-20T03:50:55.433Z,11.73
2023-01-20T03:52:47.569Z,12.63
2023-01-20T03:54:27.090Z,12.40
2023-01-20T03:56:05.385Z,12.57
2023-01-20T03:57:42.614Z,11.77
2023-01-20T03:59:18.868Z,12.32
2023-01-20T04:00:52.932Z,12.38
2023-01-20T04:02:28.872Z,12.23
2023-01-20T04:04:04.769Z,11.77
2023-01-20T04:05:39.578Z,12.02
2023-01-20T04:07:16.055Z,12.77
2023-01-20T04:08:57.011Z,12.00
2023-01-20T04:10:32.086Z,11.55
2023-01-20T04:12:05.137Z,11.65
2023-01-20T04:13:38.299Z,11.50
2023-01-20T04:15:10.836Z,11.73
2023-01-20T04:16:44.464Z,12.35
2023-01-20T04:18:19.946Z,11.80
2023-01-20T04:19:52.660Z,12.10
2023-01-20T04:21:30.522Z,11.93
2023-01-20T04:23:03.937Z,11.27
2023-01-20T04:24:42.689Z,11.32
2023-01-20T04:26:15.397Z,12.20
2023-01-20T04:27:48.117Z,11.80
2023-01-20T04:29:20.832Z,11.80
2023-01-20T04:30:53.919Z,11.77
2023-01-20T04:32:26.688Z,11.48
2023-01-20T04:33:59.427Z,11.38
2023-01-20T04:35:32.127Z,11.82
2023-01-20T04:37:04.868Z,11.10
2023-01-20T04:38:37.602Z,11.80
2023-01-20T04:40:12.993Z,10.90
2023-01-20T04:41:45.721Z,11.70
2023-01-20T04:43:18.450Z,11.60
2023-01-20T04:44:51.156Z,11.32
2023-01-20T04:46:23.881Z,10.85
2023-01-20T04:47:55.604Z,11.02
2023-01-20T04:49:28.748Z,11.82
2023-01-20T04:51:05.264Z,12.00
2023-01-20T04:52:38.048Z,11.65
2023-01-20T04:54:12.161Z,11.25
2023-01-20T04:55:45.784Z,11.02
2023-01-20T04:57:18.480Z,10.82
2023-01-20T04:58:51.179Z,11.25
2023-01-20T05:00:24.074Z,11.70
2023-01-20T05:01:56.826Z,11.00
2023-01-20T05:03:29.599Z,10.82
2023-01-20T05:05:02.521Z,11.82
2023-01-20T05:06:35.402Z,11.23
2023-01-20T05:08:08.279Z,10.55
2023-01-20T05:09:40.973Z,11.02
2023-01-20T05:11:15.073Z,10.27
2023-01-20T05:12:48.163Z,9.98
2023-01-20T05:14:19.911Z,11.10
2023-01-20T05:15:52.683Z,10.95
2023-01-20T05:17:25.425Z,11.80
2023-01-20T05:18:58.318Z,11.13
2023-01-20T05:20:31.086Z,10.93
2023-01-20T05:22:03.816Z,11.10
2023-01-20T05:23:36.740Z,11.88
2023-01-20T05:25:10.385Z,11.13
2023-01-20T05:26:44.466Z,10.68
2023-01-20T05:28:17.217Z,10.65
2023-01-20T05:29:49.917Z,10.20
2023-01-20T05:31:22.691Z,10.70
2023-01-20T05:32:55.555Z,11.20
2023-01-20T05:34:28.247Z,11.15
2023-01-20T05:36:00.913Z,11.02
2023-01-20T05:37:33.604Z,10.90
2023-01-20T05:39:06.310Z,10.18
2023-01-20T05:40:38.997Z,11.40
2023-01-20T05:42:13.032Z,10.93
2023-01-20T05:43:45.741Z,10.55
2023-01-20T05:45:17.725Z,11.13
2023-01-20T05:46:50.475Z,11.15
2023-01-20T05:48:23.195Z,11.10
2023-01-20T05:49:55.901Z,11.57
2023-01-20T05:51:28.651Z,11.02
2023-01-20T05:53:01.356Z,10.43
2023-01-20T05:54:34.045Z,10.98
2023-01-20T05:56:07.387Z,10.43
2023-01-20T05:57:41.481Z,10.98
2023-01-20T05:59:14.201Z,10.90
2023-01-20T06:00:46.879Z,11.00
2023-01-20T06:02:20.000Z,10.63
2023-01-20T06:03:52.775Z,10.32
2023-01-20T06:05:25.493Z,10.43
2023-01-20T06:06:59.041Z,11.38
2023-01-20T06:08:31.902Z,11.50
2023-01-20T06:10:04.906Z,12.10
2023-01-20T06:11:37.661Z,11.90
2023-01-20T06:13:11.655Z,10.80
2023-01-20T06:14:44.349Z,11.13
2023-01-20T06:16:18.162Z,11.27
2023-01-20T06:17:51.362Z,11.70
2023-01-20T06:19:24.101Z,11.32
2023-01-20T06:20:58.558Z,11.50
2023-01-20T06:22:31.282Z,11.48
2023-01-20T06:24:04.074Z,12.15
2023-01-20T06:25:36.804Z,11.25
2023-01-20T06:27:12.257Z,11.25
2023-01-20T06:28:47.603Z,10.75
2023-01-20T06:30:20.602Z,14.57
2023-01-20T06:31:53.367Z,16.60
2023-01-20T06:33:26.092Z,14.30
2023-01-20T06:34:58.825Z,13.10
2023-01-20T06:36:31.524Z,12.25
2023-01-20T06:38:04.482Z,11.75
2023-01-20T06:39:37.560Z,11.45
2023-01-20T06:41:11.357Z,12.35
2023-01-20T06:42:44.307Z,12.43
2023-01-20T06:44:18.333Z,11.68
2023-01-20T06:45:51.118Z,12.40
2023-01-20T06:47:23.937Z,11.95
2023-01-20T06:49:00.488Z,12.68
2023-01-20T06:50:33.453Z,14.05
2023-01-20T06:52:06.563Z,13.43
2023-01-20T06:53:39.541Z,13.55
2023-01-20T06:55:12.462Z,13.30
2023-01-20T06:56:45.673Z,14.48
2023-01-20T06:58:18.347Z,13.77
2023-01-20T06:59:52.365Z,14.45
2023-01-20T07:01:28.354Z,14.18
2023-01-20T07:03:01.275Z,13.93
2023-01-20T07:04:33.958Z,13.18
2023-01-20T07:06:14.787Z,15.52
2023-01-20T07:07:47.659Z,12.27
2023-01-20T07:09:20.353Z,10.88
2023-01-20T07:10:53.041Z,10.88
2023-01-20T07:12:25.805Z,11.00
2023-01-20T07:13:59.059Z,10.18
2023-01-20T07:15:33.116Z,10.00
2023-01-20T07:17:09.506Z,10.30
2023-01-20T07:18:42.450Z,10.00
2023-01-20T07:20:15.284Z,9.60
2023-01-20T07:21:47.960Z,9.77
2023-01-20T07:23:20.653Z,9.68
2023-01-20T07:24:53.353Z,10.02
2023-01-20T07:26:26.459Z,9.98
2023-01-20T07:27:59.207Z,10.23
2023-01-20T07:29:31.922Z,9.82
2023-01-20T07:31:07.529Z,10.20
2023-01-20T07:32:40.235Z,9.60
2023-01-20T07:34:12.950Z,10.10
2023-01-20T07:35:45.666Z,10.68
2023-01-20T07:37:18.468Z,10.65
2023-01-20T07:38:51.619Z,10.43
2023-01-20T07:40:24.337Z,10.55
2023-01-20T07:41:57.040Z,10.48
2023-01-20T07:43:30.259Z,10.70
2023-01-20T07:45:02.935Z,10.57
2023-01-20T07:46:37.006Z,10.52
2023-01-20T07:48:09.734Z,10.13
2023-01-20T07:49:42.418Z,10.88
2023-01-20T07:51:16.573Z,10.75
2023-01-20T07:52:49.267Z,10.38
2023-01-20T07:54:22.040Z,10.85
2023-01-20T07:55:54.782Z,10.80
2023-01-20T07:57:30.007Z,11.27
2023-01-20T07:59:02.753Z,11.55
2023-01-20T08:00:35.429Z,10.55
2023-01-20T08:02:11.259Z,10.75
2023-01-20T08:03:44.413Z,11.50
2023-01-20T08:05:17.408Z,10.52
2023-01-20T08:06:50.088Z,11.13
2023-01-20T08:08:23.711Z,11.07
2023-01-20T08:09:56.440Z,10.25
2023-01-20T08:11:29.808Z,10.60
2023-01-20T08:13:02.482Z,10.43
2023-01-20T08:14:37.722Z,11.10
2023-01-20T08:16:12.594Z,10.65
2023-01-20T08:17:46.735Z,10.75
2023-01-20T08:19:19.440Z,10.43
2023-01-20T08:20:52.167Z,10.30
2023-01-20T08:22:25.965Z,10.57
2023-01-20T08:24:01.307Z,10.73
2023-01-20T08:25:34.011Z,10.52
2023-01-20T08:27:06.694Z,11.32
2023-01-20T08:28:39.412Z,14.07
2023-01-20T08:30:13.091Z,12.73
2023-01-20T08:31:46.013Z,12.02
2023-01-20T08:33:20.942Z,11.20
2023-01-20T08:34:54.857Z,10.18
2023-01-20T08:36:29.481Z,10.32
2023-01-20T08:38:03.153Z,9.88
2023-01-20T08:39:35.823Z,10.68
2023-01-20T08:41:09.640Z,11.27
2023-01-20T08:42:42.365Z,11.35
2023-01-20T08:44:16.669Z,10.60
2023-01-20T08:45:58.605Z,13.40
2023-01-20T08:47:31.395Z,13.27
2023-01-20T08:49:08.248Z,14.05
2023-01-20T08:50:40.929Z,12.75
2023-01-20T08:52:13.618Z,12.52
2023-01-20T08:53:46.364Z,11.57
2023-01-20T08:55:19.277Z,12.27
2023-01-20T08:56:52.393Z,13.70
2023-01-20T08:58:25.667Z,12.32
2023-01-20T08:59:58.390Z,12.48
2023-01-20T09:01:33.524Z,12.57
2023-01-20T09:03:06.269Z,11.80
2023-01-20T09:04:40.622Z,11.98
2023-01-20T09:06:14.257Z,11.85
2023-01-20T09:07:46.989Z,11.02
2023-01-20T09:09:21.425Z,11.38
2023-01-20T09:10:57.409Z,11.15
2023-01-20T09:12:30.159Z,11.43
2023-01-20T09:14:02.981Z,11.18
2023-01-20T09:15:35.730Z,11.05
2023-01-20T09:17:08.495Z,10.88
2023-01-20T09:18:41.656Z,10.80
2023-01-20T09:20:15.973Z,10.73
2023-01-20T09:21:48.729Z,10.00
2023-01-20T09:23:21.399Z,10.13
2023-01-20T09:24:54.654Z,10.13
2023-01-20T09:26:35.746Z,9.98
2023-01-20T09:28:08.873Z,9.65
2023-01-20T09:29:41.545Z,9.27
2023-01-20T09:31:14.385Z,9.43
2023-01-20T09:32:47.132Z,9.40
2023-01-20T09:34:23.137Z,10.18
2023-01-20T09:35:58.493Z,9.48
2023-01-20T09:37:48.938Z,10.02
2023-01-20T09:39:39.758Z,9.48
2023-01-20T09:41:36.374Z,9.02
2023-01-20T09:43:39.767Z,8.40
2023-01-20T09:45:25.021Z,9.13
2023-01-20T09:47:21.648Z,8.95
2023-01-20T09:49:21.225Z,9.18
2023-01-20T09:51:21.307Z,9.45
2023-01-20T09:53:03.492Z,9.52
2023-01-20T09:54:42.190Z,9.10
2023-01-20T09:56:17.884Z,9.00
2023-01-20T09:57:59.129Z,9.32
2023-01-20T09:59:38.740Z,8.77
2023-01-20T10:01:18.448Z,8.90
2023-01-20T10:02:55.645Z,9.00
2023-01-20T10:04:33.871Z,9.30
2023-01-20T10:06:13.555Z,9.25
2023-01-20T10:07:55.525Z,8.43
2023-01-20T10:09:34.588Z,8.45
2023-01-20T10:11:10.407Z,8.52
2023-01-20T10:12:47.795Z,8.93
2023-01-20T10:14:26.371Z,9.27
2023-01-20T10:16:03.085Z,9.55
2023-01-20T10:17:40.934Z,9.63
2023-01-20T10:19:22.151Z,9.75
2023-01-20T10:21:00.510Z,9.27
2023-01-20T10:22:41.955Z,9.52
2023-01-20T10:24:19.392Z,9.63
2023-01-20T10:25:56.875Z,9.73
2023-01-20T10:27:33.048Z,9.45
2023-01-20T10:29:10.771Z,9.60
2023-01-20T10:30:46.298Z,8.63
2023-01-20T10:32:29.476Z,9.23
2023-01-20T10:34:12.009Z,9.05
2023-01-20T10:35:48.500Z,8.40
2023-01-20T10:37:22.674Z,7.93
2023-01-20T10:38:59.921Z,8.00
2023-01-20T10:40:38.251Z,8.30
2023-01-20T10:42:14.272Z,7.75
2023-01-20T10:43:47.387Z,8.68
2023-01-20T10:45:25.266Z,8.20
2023-01-20T10:47:14.723Z,7.60
2023-01-20T10:49:21.014Z,8.20
2023-01-20T10:50:58.664Z,7.88
2023-01-20T10:52:47.330Z,7.90
2023-01-20T10:54:30.186Z,8.10
2023-01-20T10:56:19.734Z,8.25
2023-01-20T10:57:56.971Z,7.88
2023-01-20T10:59:32.980Z,8.23
2023-01-20T11:01:08.863Z,7.72
2023-01-20T11:02:42.999Z,7.40
2023-01-20T11:04:19.278Z,8.00
2023-01-20T11:05:53.198Z,7.47
2023-01-20T11:07:26.740Z,6.97
2023-01-20T11:09:18.502Z,7.18
2023-01-20T11:10:55.752Z,6.25
2023-01-20T11:12:32.505Z,7.05
2023-01-20T11:14:05.405Z,6.88
2023-01-20T11:15:41.916Z,7.68
2023-01-20T11:17:16.825Z,7.55
2023-01-20T11:18:57.643Z,7.47
2023-01-20T11:20:30.454Z,7.10
2023-01-20T11:22:11.781Z,7.50
2023-01-20T11:23:52.073Z,7.00
2023-01-20T11:25:27.701Z,5.93
2023-01-20T11:27:06.898Z,6.78
2023-01-20T11:28:52.191Z,6.90
2023-01-20T11:30:28.584Z,6.45
2023-01-20T11:32:01.410Z,6.47
2023-01-20T11:33:34.244Z,6.35
2023-01-20T11:35:21.778Z,6.32
2023-01-20T11:37:16.518Z,6.70
2023-01-20T11:38:50.919Z,6.00
2023-01-20T11:40:25.899Z,6.28
2023-01-20T11:42:16.002Z,6.18
2023-01-20T11:43:49.782Z,6.65
2023-01-20T11:45:32.473Z,6.40
2023-01-20T11:47:22.420Z,6.30
2023-01-20T11:49:23.895Z,5.78
2023-01-20T11:51:01.749Z,6.68
2023-01-20T11:52:36.118Z,6.32
2023-01-20T11:54:12.357Z,6.47
2023-01-20T11:55:51.856Z,6.30
2023-01-20T11:57:25.917Z,6.18
2023-01-20T11:59:01.810Z,6.90
2023-01-20T12:00:40.359Z,6.55
2023-01-20T12:02:24.864Z,6.28
2023-01-20T12:04:20.832Z,6.82
2023-01-20T12:06:00.775Z,6.35
2023-01-20T12:07:36.084Z,7.35
2023-01-20T12:09:14.427Z,7.00
2023-01-20T12:10:48.748Z,6.85
2023-01-20T12:12:32.265Z,6.90
2023-01-20T12:14:22.989Z,7.55
2023-01-20T12:16:01.203Z,6.72
2023-01-20T12:17:42.067Z,5.53
2023-01-20T12:19:20.008Z,6.20
2023-01-20T12:21:00.011Z,7.28
2023-01-20T12:22:41.203Z,7.10
2023-01-20T12:24:19.690Z,6.78
2023-01-20T12:25:57.262Z,6.30
2023-01-20T12:27:31.767Z,6.57
2023-01-20T12:29:14.293Z,6.95
2023-01-20T12:30:59.746Z,7.20
2023-01-20T12:32:33.228Z,7.63
2023-01-20T12:34:11.941Z,8.40
2023-01-20T12:35:57.752Z,7.72
2023-01-20T12:37:37.977Z,8.25
2023-01-20T12:39:33.572Z,8.52
2023-01-20T12:41:13.827Z,6.75
2023-01-20T12:43:20.020Z,7.53
2023-01-20T12:44:58.121Z,7.78
2023-01-20T12:46:38.985Z,7.90
2023-01-20T12:48:26.659Z,7.85
2023-01-20T12:50:17.613Z,6.45
2023-01-20T12:52:05.857Z,6.65
2023-01-20T12:53:52.577Z,6.10
2023-01-20T12:55:33.340Z,6.80
2023-01-20T12:57:16.166Z,6.47
2023-01-20T12:58:57.920Z,6.28
2023-01-20T13:00:47.331Z,5.93
2023-01-20T13:02:43.895Z,6.45
2023-01-20T13:04:49.531Z,6.07
2023-01-20T13:06:50.118Z,5.50
2023-01-20T13:08:36.291Z,5.22
2023-01-20T13:10:23.742Z,4.90
2023-01-20T13:12:07.230Z,4.78
2023-01-20T13:13:57.218Z,5.20
2023-01-20T13:15:36.388Z,4.85
2023-01-20T13:17:18.744Z,5.03
2023-01-20T13:19:03.834Z,5.07
2023-01-20T13:20:40.477Z,5.05
2023-01-20T13:22:16.002Z,5.15
2023-01-20T13:23:50.263Z,4.95
2023-01-20T13:25:23.772Z,4.55
2023-01-20T13:26:57.861Z,4.53
2023-01-20T13:28:31.498Z,4.55
2023-01-20T13:30:06.723Z,4.63
2023-01-20T13:31:46.700Z,4.88
2023-01-20T13:33:31.440Z,4.38
2023-01-20T13:35:44.799Z,4.60
2023-01-20T13:37:33.022Z,4.28
2023-01-20T13:39:40.335Z,4.72
2023-01-20T13:41:13.565Z,4.00
2023-01-20T13:42:51.276Z,4.28
2023-01-20T13:44:35.272Z,3.78
2023-01-20T13:46:47.624Z,3.72
2023-01-20T13:48:24.208Z,4.10
2023-01-20T13:49:56.960Z,3.70
2023-01-20T13:51:44.877Z,3.80
2023-01-20T13:53:29.210Z,4.05
2023-01-20T13:55:01.928Z,4.13
2023-01-20T13:56:34.645Z,3.90
2023-01-20T13:58:13.687Z,3.90
2023-01-20T13:59:46.365Z,4.50
2023-01-20T14:01:19.145Z,4.45
2023-01-20T14:02:53.564Z,4.28
2023-01-20T14:04:26.297Z,4.00
2023-01-20T14:06:01.284Z,4.10
2023-01-20T14:07:34.031Z,4.22
2023-01-20T14:09:18.592Z,4.20
2023-01-20T14:10:51.925Z,4.22
2023-01-20T14:12:24.754Z,4.60
2023-01-20T14:13:59.798Z,4.45
2023-01-20T14:15:37.727Z,3.72
2023-01-20T14:17:16.068Z,4.10
2023-01-20T14:18:50.776Z,4.00
2023-01-20T14:20:26.239Z,4.15
2023-01-20T14:22:02.660Z,3.90
2023-01-20T14:23:39.513Z,3.75
2023-01-20T14:25:23.115Z,4.30
2023-01-20T14:27:07.171Z,4.18
2023-01-20T14:28:47.314Z,4.13
2023-01-20T14:30:23.718Z,4.30
2023-01-20T14:31:56.831Z,4.40
2023-01-20T14:33:29.941Z,4.53
2023-01-20T14:35:14.573Z,4.95
2023-01-20T14:36:47.645Z,4.20
2023-01-20T14:38:20.350Z,4.25
2023-01-20T14:39:54.918Z,4.07
2023-01-20T14:41:31.404Z,4.70
2023-01-20T14:43:06.668Z,4.63
2023-01-20T14:44:39.930Z,4.90
2023-01-20T14:46:12.760Z,4.80
2023-01-20T14:47:45.716Z,4.70
2023-01-20T14:49:20.219Z,4.65
2023-01-20T14:50:55.898Z,4.57
2023-01-20T14:52:31.891Z,4.80
2023-01-20T14:54:37.244Z,4.53
2023-01-20T14:56:20.337Z,4.63
2023-01-20T14:57:53.059Z,4.65
2023-01-20T14:59:26.782Z,4.90
2023-01-20T15:01:02.522Z,4.63
2023-01-20T15:02:36.789Z,4.50
2023-01-20T15:04:12.571Z,4.85
2023-01-20T15:05:58.105Z,4.80
2023-01-20T15:07:30.889Z,4.68
2023-01-20T15:09:07.657Z,5.07
2023-01-20T15:10:40.632Z,5.43
2023-01-20T15:12:35.285Z,5.38
2023-01-20T15:14:10.038Z,6.05
2023-01-20T15:15:43.409Z,5.72
2023-01-20T15:17:17.591Z,5.78
2023-01-20T15:19:23.554Z,5.88
2023-01-20T15:21:15.588Z,5.93
2023-01-20T15:22:50.678Z,5.65
2023-01-20T15:24:24.914Z,5.78
2023-01-20T15:25:58.004Z,6.50
2023-01-20T15:27:33.400Z,6.28
2023-01-20T15:29:21.616Z,6.97
2023-01-20T15:30:55.647Z,6.65
2023-01-20T15:32:28.463Z,7.05
2023-01-20T15:34:01.148Z,7.03
2023-01-20T15:35:34.321Z,7.45
2023-01-20T15:37:18.424Z,7.65
2023-01-20T15:38:51.466Z,8.05
2023-01-20T15:40:26.710Z,7.82
2023-01-20T15:42:01.362Z,8.40
2023-01-20T15:43:34.043Z,7.97
2023-01-20T15:45:07.626Z,8.20
2023-01-20T15:46:41.281Z,8.00
2023-01-20T15:48:16.568Z,8.30
2023-01-20T15:49:49.272Z,8.10
2023-01-20T15:51:22.098Z,8.70
2023-01-20T15:52:56.137Z,8.35
2023-01-20T15:54:28.820Z,8.95
2023-01-20T15:56:02.143Z,8.07
2023-01-20T15:57:34.844Z,9.18
2023-01-20T15:59:12.528Z,8.57
2023-01-20T16:00:45.211Z,8.88
2023-01-20T16:02:19.323Z,8.95
2023-01-20T16:03:52.818Z,9.35
2023-01-20T16:05:26.105Z,8.75
2023-01-20T16:06:58.839Z,10.10
2023-01-20T16:08:38.192Z,9.07
2023-01-20T16:10:16.002Z,9.60
2023-01-20T16:11:48.939Z,9.52
2023-01-20T16:13:21.672Z,10.07
2023-01-20T16:14:54.358Z,9.70
2023-01-20T16:16:30.390Z,10.07
2023-01-20T16:18:03.175Z,10.43
2023-01-20T16:19:36.421Z,11.07
2023-01-20T16:21:10.942Z,10.80
2023-01-20T16:22:43.673Z,10.48
2023-01-20T16:24:17.703Z,11.15
2023-01-20T16:25:50.413Z,10.63
2023-01-20T16:27:24.004Z,12.13
2023-01-20T16:28:58.319Z,11.75
2023-01-20T16:30:31.049Z,12.38
2023-01-20T16:32:03.803Z,11.85
2023-01-20T16:33:36.511Z,11.80
2023-01-20T16:35:09.769Z,14.95
2023-01-20T16:36:42.476Z,14.05
2023-01-20T16:38:16.825Z,13.73
2023-01-20T16:39:50.846Z,13.25
2023-01-20T16:41:25.356Z,11.98
2023-01-20T16:42:58.053Z,12.45
2023-01-20T16:44:30.757Z,13.63
2023-01-20T16:46:03.507Z,18.25
2023-01-20T16:47:36.186Z,15.05
2023-01-20T16:49:08.932Z,16.33
2023-01-20T16:50:41.624Z,14.27
2023-01-20T16:52:14.444Z,14.35
2023-01-20T16:53:47.437Z,12.70
2023-01-20T16:55:21.964Z,12.88
2023-01-20T16:56:54.688Z,12.15
2023-01-20T16:58:27.398Z,12.10
2023-01-20T17:00:00.217Z,12.82
2023-01-20T17:01:33.095Z,12.88
2023-01-20T17:03:06.400Z,13.07
2023-01-20T17:04:39.079Z,20.08
2023-01-20T17:06:12.765Z,15.85
2023-01-20T17:07:45.449Z,14.73
2023-01-20T17:09:18.147Z,13.98
2023-01-20T17:10:52.149Z,12.23
2023-01-20T17:12:24.837Z,12.05
2023-01-20T17:13:58.348Z,11.40
2023-01-20T17:15:31.065Z,12.80
2023-01-20T17:17:03.776Z,12.55
2023-01-20T17:18:36.518Z,12.30
2023-01-20T17:20:10.849Z,15.73
2023-01-20T17:21:44.027Z,13.18
2023-01-20T17:23:16.718Z,11.18
2023-01-20T17:24:49.441Z,10.07
2023-01-20T17:26:24.278Z,5.85
2023-01-20T17:27:57.007Z,4.70
2023-01-20T17:29:29.700Z,4.20
2023-01-20T17:31:03.005Z,3.85
2023-01-20T17:32:36.043Z,2.67
2023-01-20T17:34:10.153Z,1.85
2023-01-20T17:35:43.237Z,1.65
2023-01-20T17:37:15.974Z,1.90
2023-01-20T17:38:48.726Z,1.80
2023-01-20T17:40:21.521Z,1.83
2023-01-20T17:41:55.563Z,1.75
2023-01-20T17:43:32.545Z,4.75
2023-01-20T17:45:05.903Z,3.17
2023-01-20T17:46:38.586Z,2.20
2023-01-20T17:48:11.279Z,2.58
2023-01-20T17:49:43.963Z,2.30
2023-01-20T17:51:18.799Z,2.42
2023-01-20T17:52:52.169Z,3.40
2023-01-20T17:54:24.921Z,3.53
2023-01-20T17:56:11.888Z,4.30
2023-01-20T17:57:47.049Z,3.85
2023-01-20T17:59:19.746Z,4.45
2023-01-20T18:00:52.481Z,3.95
2023-01-20T18:02:25.590Z,3.58
2023-01-20T18:03:59.590Z,4.05
2023-01-20T18:05:32.646Z,2.90
2023-01-20T18:07:05.368Z,3.00
2023-01-20T18:08:39.083Z,2.95
2023-01-20T18:10:12.568Z,2.90
2023-01-20T18:11:46.097Z,3.03
2023-01-20T18:13:20.132Z,3.92
2023-01-20T18:14:54.352Z,4.55
2023-01-20T18:16:30.029Z,4.90
2023-01-20T18:18:02.792Z,6.97
2023-01-20T18:19:35.563Z,5.32
2023-01-20T18:21:09.954Z,5.45
2023-01-20T18:22:48.119Z,4.00
2023-01-20T18:24:20.809Z,4.25
2023-01-20T18:25:56.228Z,3.70
2023-01-20T18:27:29.169Z,4.22
2023-01-20T18:29:05.325Z,3.85
2023-01-20T18:30:38.113Z,3.45
2023-01-20T18:32:11.092Z,3.55
2023-01-20T18:33:45.687Z,4.13
2023-01-20T18:35:18.470Z,4.10
2023-01-20T18:36:51.200Z,4.32
2023-01-20T18:38:24.907Z,4.40
2023-01-20T18:39:57.831Z,5.38
2023-01-20T18:41:32.405Z,4.95
2023-01-20T18:43:05.075Z,6.30
2023-01-20T18:44:39.101Z,4.43
2023-01-20T18:46:12.126Z,4.70
2023-01-20T18:47:44.898Z,5.07
2023-01-20T18:49:18.324Z,6.13
2023-01-20T18:50:51.052Z,5.93
2023-01-20T18:52:23.746Z,5.78
2023-01-20T18:53:57.878Z,6.90
2023-01-20T18:55:31.556Z,4.75
2023-01-20T18:57:04.614Z,5.55
2023-01-20T18:58:41.232Z,4.13
2023-01-20T19:00:16.222Z,4.32
2023-01-20T19:01:49.518Z,4.70
2023-01-20T19:03:24.486Z,3.85
2023-01-20T19:04:57.289Z,4.18
2023-01-20T19:06:34.153Z,4.30
2023-01-20T19:08:06.832Z,4.13
2023-01-20T19:09:39.526Z,4.40
2023-01-20T19:11:14.455Z,4.40
2023-01-20T19:12:47.140Z,4.03
2023-01-20T19:14:19.830Z,4.95
2023-01-20T19:15:54.008Z,4.97
2023-01-20T19:17:28.454Z,4.40
2023-01-20T19:19:02.888Z,5.40
2023-01-20T19:20:36.373Z,4.85
2023-01-20T19:22:09.079Z,5.10
2023-01-20T19:23:42.565Z,5.55
2023-01-20T19:25:15.369Z,5.97
2023-01-20T19:26:48.166Z,5.40
2023-01-20T19:28:20.881Z,5.78
2023-01-20T19:29:53.696Z,5.88
2023-01-20T19:31:27.824Z,6.13
2023-01-20T19:33:00.563Z,5.65
2023-01-20T19:34:33.268Z,5.78
2023-01-20T19:36:08.609Z,6.38
2023-01-20T19:37:43.500Z,6.30
2023-01-20T19:39:16.404Z,6.35
2023-01-20T19:40:49.064Z,7.25
2023-01-20T19:42:21.737Z,7.53
2023-01-20T19:43:57.083Z,6.32
2023-01-20T19:45:44.875Z,6.75
2023-01-20T19:47:19.263Z,6.97
2023-01-20T19:48:52.085Z,7.45
2023-01-20T19:50:24.780Z,6.63
2023-01-20T19:51:57.534Z,6.53
2023-01-20T19:53:30.501Z,6.30
2023-01-20T19:55:03.213Z,6.60
2023-01-20T19:56:36.632Z,5.88
2023-01-20T19:58:09.316Z,6.05
2023-01-20T19:59:42.024Z,6.75
2023-01-20T20:01:17.043Z,6.93
2023-01-20T20:02:54.193Z,7.68
2023-01-20T20:04:26.956Z,7.38
2023-01-20T20:05:59.670Z,7.57
2023-01-20T20:07:34.848Z,7.00
2023-01-20T20:09:10.915Z,7.45
2023-01-20T20:10:44.021Z,8.40
2023-01-20T20:12:16.737Z,7.00
2023-01-20T20:13:49.430Z,7.80
2023-01-20T20:15:22.136Z,8.23
2023-01-20T20:16:54.818Z,8.48
2023-01-20T20:18:28.907Z,7.47
2023-01-20T20:20:01.659Z,8.15
2023-01-20T20:21:35.088Z,8.20
2023-01-20T20:23:07.748Z,8.63
2023-01-20T20:24:40.530Z,9.18
2023-01-20T20:26:13.761Z,9.90
2023-01-20T20:27:46.615Z,9.82
2023-01-20T20:29:20.178Z,9.55
2023-01-20T20:30:57.547Z,9.80
2023-01-20T20:32:30.289Z,8.73
2023-01-20T20:34:05.906Z,8.65
2023-01-20T20:35:38.768Z,9.63
2023-01-20T20:37:11.464Z,9.52
2023-01-20T20:38:51.276Z,9.90
2023-01-20T20:40:25.167Z,10.05
2023-01-20T20:41:57.917Z,8.52
2023-01-20T20:43:30.718Z,9.27
2023-01-20T20:45:03.405Z,7.88
2023-01-20T20:46:36.151Z,9.35
2023-01-20T20:48:09.823Z,8.52
2023-01-20T20:49:43.851Z,9.10
2023-01-20T20:51:17.565Z,13.25
2023-01-20T20:52:50.609Z,12.20
2023-01-20T20:54:23.277Z,10.88
2023-01-20T20:55:59.128Z,10.55
2023-01-20T20:57:33.582Z,11.27
2023-01-20T20:59:06.408Z,10.57